Eastend Cypress, Canada
Current Conditions -  °F | °C
As of 3:53 PM on Monday 22 Dec 2014 (Local Time) from KHVR Reporting Station
Scattered Clouds Scattered Clouds  
Wind Chill: 32°   Ceiling: Unl
Heat Index: 39°   Visibility: 10mi
Dew Point: 26°   Wind: 12mph
Humidity: 60%   Direction: 300°WNW
Pressure: 29.92"   Gusts: NA
Location:  49.43°N, 108.98°W
Report Text: KHVR 222153Z AUTO 30010KT 10SM SCT085 04/M03 A2992 RMK AO2 SLP153 T00391033
Loading
Personal Weather Stations






























Interactive Weather Map New forecast layout! Learn more

10-Day Weather Forecast

Advertisements
Track Severe Weather on mobile